createdAt,value
2018-03-23T00:02:05.487Z,25.70
2018-03-23T00:04:35.187Z,26.77
2018-03-23T00:07:04.678Z,28.10
2018-03-23T00:09:34.924Z,28.50
2018-03-23T00:12:05.544Z,26.85
2018-03-23T00:14:35.182Z,28.03
2018-03-23T00:17:06.939Z,29.57
2018-03-23T00:19:37.702Z,29.83
2018-03-23T00:22:07.140Z,28.33
2018-03-23T00:24:38.036Z,28.53
2018-03-23T00:27:07.996Z,28.80
2018-03-23T00:29:37.635Z,30.13
2018-03-23T00:32:06.951Z,29.90
2018-03-23T00:34:37.365Z,30.50
2018-03-23T00:37:08.370Z,29.73
2018-03-23T00:39:38.651Z,29.07
2018-03-23T00:42:09.094Z,29.87
2018-03-23T00:44:39.693Z,29.40
2018-03-23T00:47:09.369Z,31.47
2018-03-23T00:49:38.394Z,29.17
2018-03-23T00:52:07.788Z,28.97
2018-03-23T00:54:37.936Z,29.20
2018-03-23T00:57:08.200Z,31.50
2018-03-23T00:59:37.787Z,27.50
2018-03-23T01:02:06.952Z,28.47
2018-03-23T01:04:36.684Z,29.50
2018-03-23T01:07:06.440Z,27.53
2018-03-23T01:09:36.106Z,27.00
2018-03-23T01:12:05.917Z,27.53
2018-03-23T01:14:34.810Z,27.70
2018-03-23T01:17:04.082Z,27.97
2018-03-23T01:19:35.172Z,29.23
2018-03-23T01:22:04.383Z,26.87
2018-03-23T01:24:33.404Z,27.10
2018-03-23T01:27:03.254Z,28.20
2018-03-23T01:29:32.489Z,26.93
2018-03-23T01:32:02.113Z,27.03
2018-03-23T01:34:31.530Z,27.17
2018-03-23T01:37:00.938Z,27.57
2018-03-23T01:39:29.591Z,26.83
2018-03-23T01:41:58.609Z,27.33
2018-03-23T01:44:28.747Z,24.50
2018-03-23T01:46:57.731Z,23.80
2018-03-23T01:49:28.289Z,25.13
2018-03-23T01:51:56.991Z,24.27
2018-03-23T01:54:25.690Z,23.10
2018-03-23T01:56:54.559Z,24.20
2018-03-23T01:59:23.855Z,23.80
2018-03-23T02:01:52.877Z,23.25
2018-03-23T02:04:22.070Z,25.20
2018-03-23T02:06:51.165Z,24.02
2018-03-23T02:09:20.364Z,22.77
2018-03-23T02:11:49.620Z,21.83
2018-03-23T02:14:18.437Z,22.23
2018-03-23T02:16:47.703Z,17.47
2018-03-23T02:19:17.663Z,21.27
2018-03-23T02:21:47.682Z,22.30
2018-03-23T02:24:16.097Z,19.50
2018-03-23T02:26:45.964Z,21.83
2018-03-23T02:29:14.661Z,20.77
2018-03-23T02:31:43.443Z,20.93
2018-03-23T02:34:12.021Z,22.62
2018-03-23T02:36:40.604Z,22.83
2018-03-23T02:39:09.290Z,22.50
2018-03-23T02:41:37.750Z,21.03
2018-03-23T02:44:06.173Z,21.55
2018-03-23T02:46:34.974Z,20.67
2018-03-23T02:49:05.415Z,21.20
2018-03-23T02:51:34.680Z,21.67
2018-03-23T02:54:03.461Z,21.00
2018-03-23T02:56:33.417Z,19.55
2018-03-23T02:59:03.283Z,21.47
2018-03-23T03:01:32.136Z,20.77
2018-03-23T03:04:01.044Z,22.87
2018-03-23T03:06:29.760Z,24.30
2018-03-23T03:08:58.228Z,21.83
2018-03-23T03:11:27.124Z,23.77
2018-03-23T03:13:55.693Z,24.70
2018-03-23T03:16:24.396Z,24.58
2018-03-23T03:18:53.065Z,24.37
2018-03-23T03:21:22.259Z,23.97
2018-03-23T03:23:51.629Z,26.37
2018-03-23T03:26:20.628Z,26.43
2018-03-23T03:28:49.147Z,25.60
2018-03-23T03:31:17.615Z,25.80
2018-03-23T03:33:46.579Z,25.53
2018-03-23T03:36:14.909Z,25.17
2018-03-23T03:38:44.299Z,25.23
2018-03-23T03:41:12.689Z,26.07
2018-03-23T03:43:41.564Z,25.33
2018-03-23T03:46:09.901Z,26.30
2018-03-23T03:48:39.449Z,26.77
2018-03-23T03:51:08.335Z,27.87
2018-03-23T03:53:36.580Z,27.20
2018-03-23T03:56:05.108Z,26.73
2018-03-23T03:58:34.206Z,25.83
2018-03-23T04:01:04.350Z,28.70
2018-03-23T04:03:33.406Z,27.30
2018-03-23T04:06:02.028Z,26.90
2018-03-23T04:08:31.437Z,27.30
2018-03-23T04:11:00.899Z,26.50
2018-03-23T04:13:29.847Z,26.50
2018-03-23T04:15:58.347Z,26.97
2018-03-23T04:18:27.474Z,26.80
2018-03-23T04:20:56.263Z,25.27
2018-03-23T04:23:24.543Z,25.30
2018-03-23T04:25:55.549Z,25.23
2018-03-23T04:28:24.594Z,26.37
2018-03-23T04:30:53.553Z,23.77
2018-03-23T04:33:23.126Z,26.10
2018-03-23T04:35:52.243Z,25.50
2018-03-23T04:38:20.734Z,25.20
2018-03-23T04:40:49.235Z,24.07
2018-03-23T04:43:17.557Z,23.47
2018-03-23T04:45:45.870Z,24.98
2018-03-23T04:48:14.472Z,23.70
2018-03-23T04:50:42.820Z,24.00
2018-03-23T04:53:11.708Z,22.47
2018-03-23T04:55:40.546Z,22.63
2018-03-23T04:58:10.218Z,21.53
2018-03-23T05:00:39.003Z,21.70
2018-03-23T05:03:07.548Z,21.87
2018-03-23T05:05:36.195Z,21.77
2018-03-23T05:08:05.591Z,22.85
2018-03-23T05:10:34.429Z,21.23
2018-03-23T05:13:03.155Z,22.33
2018-03-23T05:15:31.903Z,19.70
2018-03-23T05:18:00.493Z,18.83
2018-03-23T05:20:29.505Z,21.07
2018-03-23T05:22:58.665Z,20.17
2018-03-23T05:25:28.714Z,20.00
2018-03-23T05:27:57.704Z,19.60
2018-03-23T05:30:26.551Z,18.60
2018-03-23T05:32:55.340Z,20.60
2018-03-23T05:35:25.142Z,17.63
2018-03-23T05:37:53.972Z,19.70
2018-03-23T05:40:22.580Z,32.70
2018-03-23T05:42:51.667Z,45.57
2018-03-23T05:45:20.369Z,18.57
2018-03-23T05:47:49.311Z,19.03
2018-03-23T05:50:17.648Z,18.57
2018-03-23T05:52:47.289Z,18.57
2018-03-23T05:55:17.349Z,17.83
2018-03-23T05:57:47.080Z,18.07
2018-03-23T06:00:16.824Z,19.97
2018-03-23T06:02:45.515Z,18.23
2018-03-23T06:05:14.346Z,18.10
2018-03-23T06:07:43.349Z,17.00
2018-03-23T06:10:13.463Z,18.37
2018-03-23T06:12:42.561Z,19.30
2018-03-23T06:15:12.256Z,20.43
2018-03-23T06:17:41.530Z,20.50
2018-03-23T06:20:10.775Z,20.47
2018-03-23T06:22:39.511Z,19.73
2018-03-23T06:25:07.992Z,22.77
2018-03-23T06:27:37.806Z,21.67
2018-03-23T06:30:08.220Z,22.37
2018-03-23T06:32:36.870Z,32.37
2018-03-23T06:35:06.585Z,23.40
2018-03-23T06:37:36.936Z,23.20
2018-03-23T06:40:07.238Z,24.33
2018-03-23T06:42:37.364Z,23.70
2018-03-23T06:45:07.194Z,25.37
2018-03-23T06:47:36.385Z,22.63
2018-03-23T06:50:05.588Z,23.53
2018-03-23T06:52:34.460Z,22.93
2018-03-23T06:55:04.164Z,21.13
2018-03-23T06:57:33.892Z,22.37
2018-03-23T07:00:03.721Z,24.20
2018-03-23T07:02:32.595Z,23.43
2018-03-23T07:05:01.606Z,22.80
2018-03-23T07:07:31.045Z,24.67
2018-03-23T07:10:00.469Z,25.13
2018-03-23T07:12:31.311Z,22.67
2018-03-23T07:15:00.782Z,25.10
2018-03-23T07:17:31.784Z,22.87
2018-03-23T07:20:01.062Z,26.50
2018-03-23T07:22:30.481Z,25.83
2018-03-23T07:24:59.828Z,24.47
2018-03-23T07:27:28.982Z,24.47
2018-03-23T07:29:58.515Z,25.57
2018-03-23T07:32:27.946Z,25.50
2018-03-23T07:34:58.323Z,25.27
2018-03-23T07:37:27.981Z,25.60
2018-03-23T07:40:03.333Z,24.07
2018-03-23T07:42:54.057Z,24.77
2018-03-23T07:45:25.427Z,25.90
2018-03-23T07:47:55.325Z,26.77
2018-03-23T07:50:24.812Z,24.07
2018-03-23T07:52:54.008Z,25.27
2018-03-23T07:55:24.534Z,26.53
2018-03-23T07:57:53.571Z,24.67
2018-03-23T08:00:22.929Z,24.83
2018-03-23T08:02:52.478Z,24.20
2018-03-23T08:05:21.457Z,26.70
2018-03-23T08:07:54.386Z,25.10
2018-03-23T08:10:24.058Z,23.43
2018-03-23T08:12:53.230Z,24.97
2018-03-23T08:15:22.528Z,24.90
2018-03-23T08:17:52.115Z,25.60
2018-03-23T08:20:24.863Z,24.37
2018-03-23T08:22:55.384Z,25.17
2018-03-23T08:25:24.410Z,23.13
2018-03-23T08:27:54.588Z,22.53
2018-03-23T08:30:24.346Z,22.17
2018-03-23T08:32:54.338Z,24.30
2018-03-23T08:35:23.437Z,22.93
2018-03-23T08:37:53.429Z,23.23
2018-03-23T08:40:24.344Z,23.80
2018-03-23T08:42:53.460Z,23.00
2018-03-23T08:45:24.547Z,22.80
2018-03-23T08:47:58.320Z,24.53
2018-03-23T08:50:28.199Z,23.53
2018-03-23T08:52:58.071Z,22.03
2018-03-23T08:55:27.780Z,20.80
2018-03-23T08:57:58.399Z,22.30
2018-03-23T09:00:28.468Z,20.57
2018-03-23T09:02:57.843Z,22.07
2018-03-23T09:05:27.666Z,21.93
2018-03-23T09:07:56.915Z,22.43
2018-03-23T09:10:26.140Z,22.10
2018-03-23T09:12:56.329Z,20.90
2018-03-23T09:15:26.925Z,22.63
2018-03-23T09:17:56.802Z,21.70
2018-03-23T09:20:26.703Z,19.10
2018-03-23T09:22:57.539Z,18.77
2018-03-23T09:25:27.749Z,17.73
2018-03-23T09:28:00.306Z,18.07
2018-03-23T09:30:30.456Z,19.97
2018-03-23T09:33:00.794Z,18.77
2018-03-23T09:35:30.905Z,19.73
2018-03-23T09:38:00.756Z,20.67
2018-03-23T09:40:29.639Z,21.23
2018-03-23T09:42:58.700Z,22.17
2018-03-23T09:45:28.478Z,21.90
2018-03-23T09:47:58.098Z,22.33
2018-03-23T09:50:27.466Z,24.07
2018-03-23T09:52:56.530Z,23.90
2018-03-23T09:55:26.486Z,22.53
2018-03-23T09:57:56.869Z,21.53
2018-03-23T10:00:26.999Z,21.43
2018-03-23T10:02:56.009Z,20.47
2018-03-23T10:05:25.085Z,22.47
2018-03-23T10:07:53.989Z,21.53
2018-03-23T10:10:23.200Z,20.10
2018-03-23T10:12:52.354Z,21.00
2018-03-23T10:15:22.289Z,19.10
2018-03-23T10:17:51.238Z,19.70
2018-03-23T10:20:21.872Z,20.27
2018-03-23T10:22:50.904Z,20.73
2018-03-23T10:25:23.184Z,20.07
2018-03-23T10:27:52.286Z,20.07
2018-03-23T10:30:21.260Z,19.60
2018-03-23T10:32:50.406Z,20.03
2018-03-23T10:35:21.296Z,22.10
2018-03-23T10:37:50.415Z,22.60
2018-03-23T10:40:19.233Z,21.17
2018-03-23T10:42:48.234Z,21.37
2018-03-23T10:45:17.621Z,20.43
2018-03-23T10:47:46.630Z,21.03
2018-03-23T10:50:15.532Z,21.20
2018-03-23T10:52:45.556Z,21.17
2018-03-23T10:55:15.470Z,19.83
2018-03-23T10:57:45.481Z,20.23
2018-03-23T11:00:15.687Z,19.63
2018-03-23T11:02:49.363Z,19.37
2018-03-23T11:05:18.634Z,20.17
2018-03-23T11:07:47.629Z,23.37
2018-03-23T11:10:16.654Z,24.07
2018-03-23T11:12:46.382Z,21.27
2018-03-23T11:15:15.440Z,22.43
2018-03-23T11:17:45.317Z,21.47
2018-03-23T11:20:14.997Z,20.67
2018-03-23T11:22:44.176Z,21.23
2018-03-23T11:25:13.032Z,20.67
2018-03-23T11:27:42.172Z,21.67
2018-03-23T11:30:11.230Z,22.03
2018-03-23T11:32:40.287Z,20.73
2018-03-23T11:35:09.301Z,20.83
2018-03-23T11:37:38.372Z,17.67
2018-03-23T11:40:08.105Z,20.23
2018-03-23T11:42:37.201Z,23.07
2018-03-23T11:45:06.283Z,22.07
2018-03-23T11:47:36.122Z,19.97
2018-03-23T11:50:05.197Z,21.97
2018-03-23T11:52:34.233Z,23.07
2018-03-23T11:55:03.216Z,20.93
2018-03-23T11:57:33.492Z,21.63
2018-03-23T12:00:03.778Z,23.37
2018-03-23T12:02:33.327Z,22.27
2018-03-23T12:05:02.258Z,22.57
2018-03-23T12:07:31.241Z,21.23
2018-03-23T12:10:00.305Z,18.87
2018-03-23T12:12:30.117Z,23.37
2018-03-23T12:14:59.039Z,15.50
2018-03-23T12:17:27.820Z,16.17
2018-03-23T12:19:56.829Z,13.77
2018-03-23T12:22:25.563Z,15.27
2018-03-23T12:24:55.155Z,14.27
2018-03-23T12:27:24.979Z,14.47
2018-03-23T12:29:54.594Z,18.20
2018-03-23T12:32:24.352Z,16.90
2018-03-23T12:34:53.416Z,18.30
2018-03-23T12:37:22.455Z,18.20
2018-03-23T12:39:52.268Z,17.00
2018-03-23T12:42:22.464Z,18.40
2018-03-23T12:44:51.506Z,14.97
2018-03-23T12:47:21.108Z,14.60
2018-03-23T12:49:50.766Z,14.70
2018-03-23T12:52:19.667Z,14.60
2018-03-23T12:54:49.270Z,11.60
2018-03-23T12:57:18.300Z,11.97
2018-03-23T12:59:47.157Z,12.00
2018-03-23T13:02:16.464Z,11.70
2018-03-23T13:04:45.519Z,10.37
2018-03-23T13:07:14.505Z,10.83
2018-03-23T13:09:43.393Z,9.90
2018-03-23T13:12:12.984Z,9.27
2018-03-23T13:14:41.865Z,10.17
2018-03-23T13:17:11.279Z,9.63
2018-03-23T13:19:41.096Z,10.03
2018-03-23T13:22:10.462Z,9.80
2018-03-23T13:24:39.222Z,9.20
2018-03-23T13:27:08.345Z,9.93
2018-03-23T13:29:38.138Z,9.93
2018-03-23T13:32:07.267Z,9.90
2018-03-23T13:34:36.222Z,9.23
2018-03-23T13:37:05.703Z,9.10
2018-03-23T13:39:35.699Z,9.73
2018-03-23T13:42:06.215Z,9.40
2018-03-23T13:44:36.168Z,10.10
2018-03-23T13:47:05.752Z,10.40
2018-03-23T13:49:35.198Z,9.37
2018-03-23T13:52:05.091Z,9.53
2018-03-23T13:54:33.987Z,10.10
2018-03-23T13:57:03.340Z,10.53
2018-03-23T14:00:03.588Z,9.60
2018-03-23T14:02:32.398Z,10.87
2018-03-23T14:05:01.098Z,10.97
2018-03-23T14:07:29.850Z,11.03
2018-03-23T14:09:58.758Z,10.33
2018-03-23T14:12:27.677Z,10.07
2018-03-23T14:14:56.807Z,10.47
2018-03-23T14:17:26.481Z,10.67
2018-03-23T14:19:55.861Z,11.60
2018-03-23T14:22:24.860Z,11.50
2018-03-23T14:24:53.608Z,11.70
2018-03-23T14:27:22.361Z,10.30
2018-03-23T14:29:51.321Z,12.93
2018-03-23T14:32:20.138Z,12.80
2018-03-23T14:34:49.125Z,11.73
2018-03-23T14:37:17.910Z,13.07
2018-03-23T14:39:46.751Z,13.90
2018-03-23T14:42:16.437Z,13.73
2018-03-23T14:44:45.933Z,14.70
2018-03-23T14:47:14.696Z,14.17
2018-03-23T14:49:43.775Z,14.17
2018-03-23T14:52:12.763Z,14.97
2018-03-23T14:54:42.637Z,14.77
2018-03-23T14:57:11.689Z,15.43
2018-03-23T14:59:41.221Z,13.70
2018-03-23T15:02:10.186Z,16.97
2018-03-23T15:04:39.003Z,14.47
2018-03-23T15:07:08.834Z,15.53
2018-03-23T15:09:38.869Z,14.20
2018-03-23T15:12:07.862Z,15.27
2018-03-23T15:14:37.197Z,15.50
2018-03-23T15:17:06.126Z,15.63
2018-03-23T15:19:35.803Z,14.30
2018-03-23T15:22:05.760Z,17.80
2018-03-23T15:24:34.985Z,15.20
2018-03-23T15:27:04.261Z,15.90
2018-03-23T15:29:33.997Z,15.67
2018-03-23T15:32:03.117Z,15.43
2018-03-23T15:34:32.307Z,14.83
2018-03-23T15:37:01.366Z,13.83
2018-03-23T15:39:30.577Z,15.10
2018-03-23T15:41:59.466Z,14.33
2018-03-23T15:44:28.460Z,15.23
2018-03-23T15:46:57.197Z,14.43
2018-03-23T15:49:26.078Z,14.07
2018-03-23T15:51:55.117Z,13.00
2018-03-23T15:54:24.087Z,13.40
2018-03-23T15:56:53.454Z,12.50
2018-03-23T15:59:22.412Z,13.20
2018-03-23T16:01:51.224Z,12.00
2018-03-23T16:04:21.939Z,12.77
2018-03-23T16:06:51.803Z,12.77
2018-03-23T16:09:21.387Z,15.50
2018-03-23T16:11:50.216Z,14.00
2018-03-23T16:14:20.167Z,13.03
2018-03-23T16:16:49.123Z,14.37
2018-03-23T16:19:18.205Z,13.43
2018-03-23T16:21:47.309Z,12.83
2018-03-23T16:24:16.750Z,11.93
2018-03-23T16:26:45.693Z,12.87
2018-03-23T16:29:15.985Z,13.50
2018-03-23T16:31:44.917Z,12.97
2018-03-23T16:34:14.742Z,12.67
2018-03-23T16:36:44.003Z,12.70
2018-03-23T16:39:12.870Z,13.73
2018-03-23T16:41:42.030Z,12.37
2018-03-23T16:44:10.994Z,12.20
2018-03-23T16:46:43.188Z,12.80
2018-03-23T16:49:13.794Z,12.30
2018-03-23T16:51:43.038Z,12.00
2018-03-23T16:54:11.947Z,12.60
2018-03-23T16:56:40.755Z,12.23
2018-03-23T16:59:09.735Z,12.07
2018-03-23T17:01:39.282Z,12.77
2018-03-23T17:04:09.034Z,12.70
2018-03-23T17:06:38.217Z,13.47
2018-03-23T17:09:07.997Z,12.97
2018-03-23T17:11:37.309Z,13.07
2018-03-23T17:14:06.677Z,12.13
2018-03-23T17:16:36.316Z,13.17
2018-03-23T17:19:05.840Z,13.73
2018-03-23T17:21:34.567Z,13.60
2018-03-23T17:24:03.609Z,12.77
2018-03-23T17:26:32.742Z,13.70
2018-03-23T17:29:01.735Z,12.60
2018-03-23T17:31:31.135Z,13.30
2018-03-23T17:33:59.873Z,13.97
2018-03-23T17:36:28.498Z,14.00
2018-03-23T17:38:57.388Z,12.77
2018-03-23T17:41:26.116Z,13.20
2018-03-23T17:43:57.956Z,13.87
2018-03-23T17:46:27.056Z,13.77
2018-03-23T17:48:56.102Z,13.97
2018-03-23T17:51:24.829Z,19.20
2018-03-23T17:53:53.539Z,14.13
2018-03-23T17:56:23.146Z,14.40
2018-03-23T17:58:52.929Z,16.23
2018-03-23T18:01:21.766Z,14.97
2018-03-23T18:03:50.455Z,14.10
2018-03-23T18:06:20.182Z,14.60
2018-03-23T18:08:48.749Z,13.77
2018-03-23T18:11:17.814Z,13.83
2018-03-23T18:13:47.140Z,14.43
2018-03-23T18:16:15.855Z,14.50
2018-03-23T18:18:44.796Z,14.30
2018-03-23T18:21:14.614Z,13.97
2018-03-23T18:23:43.768Z,14.20
2018-03-23T18:26:12.449Z,13.83
2018-03-23T18:28:41.276Z,14.40
2018-03-23T18:31:10.764Z,14.87
2018-03-23T18:33:39.336Z,14.73
2018-03-23T18:36:08.210Z,14.27
2018-03-23T18:38:36.877Z,15.00
2018-03-23T18:41:05.824Z,15.03
2018-03-23T18:43:35.494Z,14.60
2018-03-23T18:46:05.003Z,14.83
2018-03-23T18:48:34.302Z,14.80
2018-03-23T18:51:04.251Z,17.20
2018-03-23T18:53:32.950Z,13.70
2018-03-23T18:56:02.324Z,14.03
2018-03-23T18:58:32.357Z,13.87
2018-03-23T19:01:02.280Z,14.37
2018-03-23T19:03:32.295Z,13.67
2018-03-23T19:06:02.668Z,14.57
2018-03-23T19:08:31.910Z,13.47
2018-03-23T19:11:01.642Z,14.10
2018-03-23T19:13:30.376Z,12.93
2018-03-23T19:15:59.293Z,12.80
2018-03-23T19:18:28.707Z,13.03
2018-03-23T19:20:57.562Z,13.43
2018-03-23T19:23:28.694Z,13.23
2018-03-23T19:25:57.915Z,13.40
2018-03-23T19:28:28.574Z,14.30
2018-03-23T19:30:57.764Z,13.10
2018-03-23T19:33:27.226Z,13.60
2018-03-23T19:35:56.273Z,12.90
2018-03-23T19:38:25.128Z,13.17
2018-03-23T19:40:54.625Z,14.40
2018-03-23T19:43:23.992Z,13.53
2018-03-23T19:45:52.757Z,12.50
2018-03-23T19:48:21.376Z,13.53
2018-03-23T19:50:51.563Z,13.53
2018-03-23T19:53:21.197Z,13.07
2018-03-23T19:55:50.182Z,12.83
2018-03-23T19:58:19.148Z,12.37
2018-03-23T20:00:48.420Z,12.13
2018-03-23T20:03:18.288Z,12.77
2018-03-23T20:05:47.454Z,12.27
2018-03-23T20:08:16.934Z,12.77
2018-03-23T20:10:45.553Z,13.67
2018-03-23T20:13:14.233Z,13.27
2018-03-23T20:15:42.896Z,13.07
2018-03-23T20:18:16.607Z,14.37
2018-03-23T20:20:50.452Z,13.33
2018-03-23T20:23:19.096Z,13.63
2018-03-23T20:25:48.521Z,15.50
2018-03-23T20:28:22.566Z,14.73
2018-03-23T20:30:51.484Z,12.97
2018-03-23T20:33:20.907Z,13.13
2018-03-23T20:35:50.532Z,14.00
2018-03-23T20:38:19.181Z,13.73
2018-03-23T20:40:48.112Z,13.30
2018-03-23T20:43:16.955Z,13.83
2018-03-23T20:45:45.884Z,13.53
2018-03-23T20:48:14.740Z,14.70
2018-03-23T20:50:43.617Z,14.20
2018-03-23T20:53:12.358Z,14.40
2018-03-23T20:55:41.155Z,13.77
2018-03-23T20:58:10.812Z,13.67
2018-03-23T21:00:39.489Z,15.87
2018-03-23T21:03:08.422Z,14.17
2018-03-23T21:05:37.182Z,15.20
2018-03-23T21:08:06.488Z,15.13
2018-03-23T21:10:35.869Z,15.40
2018-03-23T21:13:04.580Z,15.40
2018-03-23T21:15:33.312Z,15.97
2018-03-23T21:18:02.089Z,16.10
2018-03-23T21:20:30.975Z,17.70
2018-03-23T21:22:59.788Z,17.33
2018-03-23T21:25:28.338Z,17.63
2018-03-23T21:27:56.999Z,17.90
2018-03-23T21:30:26.784Z,17.23
2018-03-23T21:32:55.964Z,19.60
2018-03-23T21:35:24.907Z,19.87
2018-03-23T21:37:53.439Z,20.57
2018-03-23T21:40:22.101Z,19.57
2018-03-23T21:42:51.519Z,20.67
2018-03-23T21:45:21.672Z,21.10
2018-03-23T21:47:51.676Z,22.13
2018-03-23T21:50:21.836Z,21.93
2018-03-23T21:52:51.087Z,21.97
2018-03-23T21:55:20.009Z,23.33
2018-03-23T21:57:49.592Z,20.53
2018-03-23T22:00:18.563Z,20.80
2018-03-23T22:02:47.469Z,21.03
2018-03-23T22:05:16.786Z,20.30
2018-03-23T22:07:45.738Z,20.57
2018-03-23T22:10:15.027Z,20.43
2018-03-23T22:12:44.504Z,19.60
2018-03-23T22:15:13.933Z,19.07
2018-03-23T22:17:42.961Z,18.60
2018-03-23T22:20:11.948Z,19.90
2018-03-23T22:22:40.967Z,20.17
2018-03-23T22:25:11.307Z,20.90
2018-03-23T22:27:40.273Z,20.63
2018-03-23T22:30:09.192Z,19.50
2018-03-23T22:32:38.901Z,20.87
2018-03-23T22:35:08.686Z,19.93
2018-03-23T22:37:37.575Z,22.47
2018-03-23T22:40:08.306Z,20.73
2018-03-23T22:42:37.597Z,20.93
2018-03-23T22:45:06.672Z,20.20
2018-03-23T22:47:35.697Z,20.53
2018-03-23T22:50:04.890Z,20.57
2018-03-23T22:52:35.349Z,20.13
2018-03-23T22:55:04.404Z,20.73
2018-03-23T22:57:33.741Z,19.60
2018-03-23T23:00:03.328Z,18.87
2018-03-23T23:02:32.815Z,19.40
2018-03-23T23:05:02.359Z,18.67
2018-03-23T23:07:31.926Z,19.57
2018-03-23T23:10:01.019Z,17.87
2018-03-23T23:12:30.530Z,19.50
2018-03-23T23:15:00.121Z,17.03
2018-03-23T23:17:29.206Z,16.37
2018-03-23T23:19:58.172Z,17.20
2018-03-23T23:22:27.772Z,15.27
2018-03-23T23:24:57.454Z,15.90
2018-03-23T23:27:27.246Z,15.00
2018-03-23T23:29:56.393Z,15.77
2018-03-23T23:32:25.293Z,18.87
2018-03-23T23:34:54.459Z,16.20
2018-03-23T23:37:24.169Z,15.87
2018-03-23T23:39:53.811Z,15.57
2018-03-23T23:42:23.349Z,16.83
2018-03-23T23:44:52.827Z,16.47
2018-03-23T23:47:21.828Z,17.63
2018-03-23T23:49:51.074Z,16.63
2018-03-23T23:52:20.690Z,17.13
2018-03-23T23:54:49.690Z,18.17
2018-03-23T23:57:18.744Z,16.43
2018-03-23T23:59:47.828Z,16.80
